createdAt,value
2022-08-07T00:00:52.402Z,98.60
2022-08-07T00:03:19.857Z,98.90
2022-08-07T00:05:54.193Z,99.30
2022-08-07T00:08:22.768Z,99.40
2022-08-07T00:10:57.500Z,99.70
2022-08-07T00:13:26.759Z,99.90
2022-08-07T00:15:54.808Z,99.90
2022-08-07T00:18:25.646Z,99.90
2022-08-07T00:21:03.463Z,99.90
2022-08-07T00:23:39.515Z,99.90
2022-08-07T00:26:18.655Z,99.90
2022-08-07T00:28:57.208Z,99.90
2022-08-07T00:31:37.288Z,99.90
2022-08-07T00:34:05.345Z,99.90
2022-08-07T00:36:42.619Z,99.90
2022-08-07T00:39:12.757Z,99.90
2022-08-07T00:42:02.050Z,99.90
2022-08-07T00:44:33.695Z,99.90
2022-08-07T00:47:02.277Z,99.90
2022-08-07T00:50:21.487Z,99.90
2022-08-07T00:52:20.159Z,99.90
2022-08-07T00:54:53.736Z,99.90
2022-08-07T00:57:23.258Z,99.90
2022-08-07T00:59:53.824Z,99.90
2022-08-07T01:02:28.507Z,99.90
2022-08-07T01:04:59.187Z,99.90
2022-08-07T01:07:29.315Z,99.90
2022-08-07T01:10:06.373Z,99.90
2022-08-07T01:12:53.234Z,99.90
2022-08-07T01:15:36.136Z,99.90
2022-08-07T01:18:17.129Z,99.90
2022-08-07T01:20:57.559Z,99.90
2022-08-07T01:23:38.683Z,99.90
2022-08-07T01:26:12.205Z,99.90
2022-08-07T01:28:46.323Z,99.90
2022-08-07T01:31:21.291Z,99.90
2022-08-07T01:33:55.905Z,99.90
2022-08-07T01:36:33.299Z,99.90
2022-08-07T01:39:10.024Z,99.90
2022-08-07T01:42:07.088Z,99.90
2022-08-07T01:44:31.371Z,99.90
2022-08-07T01:47:01.225Z,99.90
2022-08-07T01:49:43.818Z,99.90
2022-08-07T01:52:13.446Z,99.90
2022-08-07T01:54:45.107Z,99.90
2022-08-07T01:57:24.744Z,99.90
2022-08-07T02:00:12.872Z,99.90
2022-08-07T02:03:18.175Z,99.90
2022-08-07T02:05:59.789Z,99.90
2022-08-07T02:08:33.818Z,99.90
2022-08-07T02:11:03.863Z,99.90
2022-08-07T02:13:57.534Z,99.90
2022-08-07T02:20:05.339Z,99.90
2022-08-07T02:22:07.742Z,99.90
2022-08-07T02:24:35.787Z,99.90
2022-08-07T02:27:04.060Z,99.90
2022-08-07T02:29:43.505Z,99.90
2022-08-07T02:32:23.280Z,99.90
2022-08-07T02:34:52.208Z,99.90
2022-08-07T02:37:24.933Z,99.90
2022-08-07T02:40:11.819Z,99.90
2022-08-07T02:42:46.696Z,99.90
2022-08-07T02:46:00.505Z,99.90
2022-08-07T02:48:10.040Z,99.90
2022-08-07T02:50:43.461Z,99.90
2022-08-07T02:53:17.972Z,99.90
2022-08-07T02:56:03.250Z,99.90
2022-08-07T02:58:35.163Z,99.90
2022-08-07T03:01:05.866Z,99.90
2022-08-07T03:03:49.459Z,99.90
2022-08-07T03:06:41.412Z,99.90
2022-08-07T03:09:11.236Z,99.90
2022-08-07T03:11:52.142Z,99.90
2022-08-07T03:14:28.147Z,99.90
2022-08-07T03:16:56.969Z,99.90
2022-08-07T03:19:28.987Z,99.90
2022-08-07T03:22:07.068Z,99.90
2022-08-07T03:24:34.838Z,99.90
2022-08-07T03:27:09.120Z,99.90
2022-08-07T03:29:51.470Z,99.90
2022-08-07T03:32:36.885Z,99.90
2022-08-07T03:35:17.711Z,99.90
2022-08-07T03:37:53.542Z,99.90
2022-08-07T03:40:30.681Z,99.90
2022-08-07T03:43:01.401Z,99.90
2022-08-07T03:45:32.860Z,99.90
2022-08-07T03:48:11.703Z,99.90
2022-08-07T03:50:43.170Z,99.90
2022-08-07T03:53:50.181Z,99.90
2022-08-07T03:56:13.748Z,99.90
2022-08-07T03:59:07.996Z,99.90
2022-08-07T04:01:32.091Z,99.90
2022-08-07T04:04:00.233Z,99.90
2022-08-07T04:06:38.160Z,99.90
2022-08-07T04:09:15.302Z,99.90
2022-08-07T04:12:23.581Z,99.90
2022-08-07T04:14:38.782Z,99.90
2022-08-07T04:17:19.979Z,99.90
2022-08-07T04:19:54.171Z,99.90
2022-08-07T04:22:27.494Z,99.90
2022-08-07T04:24:58.455Z,99.90
2022-08-07T04:27:26.842Z,99.90
2022-08-07T04:30:02.634Z,99.90
2022-08-07T04:32:47.930Z,99.90
2022-08-07T04:35:17.520Z,99.90
2022-08-07T04:38:03.333Z,99.90
2022-08-07T04:40:35.567Z,99.90
2022-08-07T04:43:11.899Z,99.90
2022-08-07T04:46:02.904Z,99.90
2022-08-07T04:48:50.874Z,99.90
2022-08-07T04:51:45.213Z,99.90
2022-08-07T04:55:15.389Z,99.90
2022-08-07T04:58:26.090Z,99.90
2022-08-07T05:01:18.057Z,99.90
2022-08-07T05:04:06.517Z,99.90
2022-08-07T05:07:30.403Z,99.90
2022-08-07T05:10:11.048Z,99.90
2022-08-07T05:12:53.681Z,99.90
2022-08-07T05:15:39.612Z,99.90
2022-08-07T05:18:29.613Z,99.90
2022-08-07T05:21:02.556Z,99.90
2022-08-07T05:23:48.091Z,99.90
2022-08-07T05:26:23.921Z,99.90
2022-08-07T05:29:00.363Z,99.90
2022-08-07T05:31:38.428Z,99.90
2022-08-07T05:34:13.240Z,99.90
2022-08-07T05:36:53.143Z,99.90
2022-08-07T05:40:17.151Z,99.50
2022-08-07T05:42:33.723Z,98.90
2022-08-07T05:45:25.742Z,98.70
2022-08-07T05:48:03.274Z,98.80
2022-08-07T05:50:43.023Z,98.20
2022-08-07T05:54:12.676Z,98.20
2022-08-07T05:56:05.697Z,97.40
2022-08-07T05:58:39.232Z,97.10
2022-08-07T06:01:12.566Z,96.60
2022-08-07T06:03:57.270Z,95.70
2022-08-07T06:06:32.641Z,95.00
2022-08-07T06:09:05.022Z,94.70
2022-08-07T06:11:35.901Z,94.50
2022-08-07T06:14:12.466Z,94.40
2022-08-07T06:16:55.796Z,94.10
2022-08-07T06:19:51.766Z,93.70
2022-08-07T06:22:23.810Z,93.00
2022-08-07T06:25:06.587Z,92.80
2022-08-07T06:27:44.079Z,92.30
2022-08-07T06:30:35.755Z,92.00
2022-08-07T06:33:16.169Z,92.00
2022-08-07T06:35:48.077Z,91.50
2022-08-07T06:38:35.026Z,90.80
2022-08-07T06:41:09.735Z,90.10
2022-08-07T06:43:59.210Z,88.80
2022-08-07T06:46:35.214Z,89.20
2022-08-07T06:49:05.178Z,87.00
2022-08-07T06:51:49.273Z,84.00
2022-08-07T06:55:32.353Z,82.20
2022-08-07T06:57:10.160Z,79.20
2022-08-07T07:00:12.029Z,78.10
2022-08-07T07:02:53.793Z,77.00
2022-08-07T07:06:03.074Z,73.10
2022-08-07T07:08:12.668Z,71.40
2022-08-07T07:10:47.595Z,69.90
2022-08-07T07:13:58.781Z,68.80
2022-08-07T07:16:45.181Z,67.60
2022-08-07T07:19:55.479Z,63.50
2022-08-07T07:22:34.024Z,60.80
2022-08-07T07:26:31.280Z,59.10
2022-08-07T07:28:42.507Z,57.50
2022-08-07T07:31:07.153Z,55.60
2022-08-07T07:33:35.969Z,54.90
2022-08-07T07:36:13.188Z,53.80
2022-08-07T07:38:45.889Z,53.20
2022-08-07T07:41:16.500Z,52.30
2022-08-07T07:44:14.654Z,49.80
2022-08-07T07:46:57.340Z,49.70
2022-08-07T07:50:33.020Z,48.80
2022-08-07T07:52:16.803Z,47.60
2022-08-07T07:54:51.237Z,48.20
2022-08-07T07:57:43.794Z,48.20
2022-08-07T08:00:18.289Z,48.60
2022-08-07T08:03:06.222Z,47.50
2022-08-07T08:05:50.862Z,46.70
2022-08-07T08:08:35.291Z,46.70
2022-08-07T08:11:13.854Z,44.70
2022-08-07T08:13:54.294Z,44.40
2022-08-07T08:16:42.671Z,43.80
2022-08-07T08:20:17.329Z,43.80
2022-08-07T08:22:32.983Z,43.20
2022-08-07T08:25:41.956Z,42.40
2022-08-07T08:28:16.805Z,43.20
2022-08-07T08:30:58.753Z,44.10
2022-08-07T08:33:33.230Z,41.90
2022-08-07T08:36:02.694Z,41.30
2022-08-07T08:38:40.454Z,41.60
2022-08-07T08:41:21.428Z,42.90
2022-08-07T08:43:59.786Z,41.00
2022-08-07T08:46:44.810Z,41.80
2022-08-07T08:49:57.206Z,40.80
2022-08-07T08:52:52.512Z,42.20
2022-08-07T08:55:54.830Z,43.60
2022-08-07T08:58:58.416Z,42.50
2022-08-07T09:01:49.325Z,43.20
2022-08-07T09:04:36.917Z,44.20
2022-08-07T09:07:46.422Z,44.50
2022-08-07T09:10:35.338Z,45.10
2022-08-07T09:13:16.308Z,43.40
2022-08-07T09:16:30.478Z,42.80
2022-08-07T09:20:35.537Z,42.20
2022-08-07T09:24:33.732Z,42.90
2022-08-07T09:26:22.257Z,43.00
2022-08-07T09:30:05.813Z,42.90
2022-08-07T09:32:18.716Z,42.40
2022-08-07T09:36:02.927Z,42.10
2022-08-07T09:38:19.801Z,42.00
2022-08-07T09:41:16.786Z,41.20
2022-08-07T09:44:20.027Z,41.50
2022-08-07T09:47:59.590Z,42.90
2022-08-07T09:51:14.543Z,41.90
2022-08-07T09:54:02.556Z,41.10
2022-08-07T09:57:05.746Z,41.60
2022-08-07T10:00:09.461Z,41.50
2022-08-07T10:04:05.399Z,40.20
2022-08-07T10:10:02.635Z,40.10
2022-08-07T10:12:53.091Z,39.70
2022-08-07T10:15:53.752Z,39.70
2022-08-07T10:19:03.746Z,40.00
2022-08-07T10:52:02.371Z,37.90
2022-08-07T10:55:20.808Z,39.00
2022-08-07T11:01:11.644Z,37.60
2022-08-07T11:03:54.901Z,37.60
2022-08-07T11:07:56.170Z,37.80
2022-08-07T11:10:16.516Z,38.00
2022-08-07T11:13:01.939Z,37.60
2022-08-07T11:15:35.124Z,39.10
2022-08-07T11:18:43.881Z,37.40
2022-08-07T11:21:45.265Z,37.60
2022-08-07T11:24:22.225Z,37.60
2022-08-07T11:27:03.401Z,39.00
2022-08-07T11:29:47.364Z,38.30
2022-08-07T11:32:58.614Z,39.40
2022-08-07T11:35:30.576Z,38.50
2022-08-07T11:38:50.356Z,38.00
2022-08-07T11:41:30.963Z,38.80
2022-08-07T11:44:52.296Z,38.90
2022-08-07T11:48:03.330Z,39.50
2022-08-07T11:51:41.817Z,38.50
2022-08-07T11:54:30.525Z,37.50
2022-08-07T11:57:18.814Z,37.60
2022-08-07T12:00:18.972Z,38.50
2022-08-07T12:03:45.240Z,38.30
2022-08-07T12:06:37.878Z,38.60
2022-08-07T12:09:16.435Z,38.80
2022-08-07T12:12:09.066Z,38.50
2022-08-07T12:15:03.152Z,38.30
2022-08-07T12:17:39.946Z,38.30
2022-08-07T12:20:49.210Z,38.70
2022-08-07T12:24:06.633Z,37.50
2022-08-07T12:26:58.993Z,36.40
2022-08-07T12:29:41.255Z,36.40
2022-08-07T12:32:38.915Z,36.50
2022-08-07T12:35:10.164Z,37.20
2022-08-07T12:38:09.378Z,37.00
2022-08-07T12:40:50.229Z,37.40
2022-08-07T12:44:02.450Z,35.60
2022-08-07T12:47:07.602Z,36.00
2022-08-07T12:50:05.093Z,37.10
2022-08-07T12:53:22.256Z,36.10
2022-08-07T12:56:10.560Z,36.70
2022-08-07T12:58:46.865Z,35.90
2022-08-07T13:01:43.098Z,36.90
2022-08-07T13:05:01.024Z,35.90
2022-08-07T13:08:14.392Z,37.10
2022-08-07T13:12:03.138Z,35.90
2022-08-07T13:15:03.294Z,37.20
2022-08-07T13:18:03.306Z,36.60
2022-08-07T13:20:56.177Z,36.30
2022-08-07T13:26:41.717Z,36.40
2022-08-07T13:29:34.872Z,36.50
2022-08-07T13:32:32.253Z,36.60
2022-08-07T13:35:08.549Z,36.70
2022-08-07T13:38:01.032Z,36.30
2022-08-07T13:40:54.294Z,36.00
2022-08-07T13:43:22.994Z,36.00
2022-08-07T13:46:11.928Z,35.20
2022-08-07T13:48:58.786Z,36.20
2022-08-07T13:52:16.382Z,35.60
2022-08-07T13:54:23.628Z,36.30
2022-08-07T13:56:56.256Z,35.60
2022-08-07T13:59:32.841Z,35.80
2022-08-07T14:02:08.638Z,35.60
2022-08-07T14:05:12.212Z,36.20
2022-08-07T14:08:00.550Z,35.30
2022-08-07T14:10:42.398Z,34.60
2022-08-07T14:13:16.577Z,35.00
2022-08-07T14:15:54.205Z,35.00
2022-08-07T14:18:50.017Z,35.00
2022-08-07T14:22:02.139Z,34.80
2022-08-07T14:24:34.233Z,34.80
2022-08-07T14:28:11.491Z,36.00
2022-08-07T14:30:07.786Z,34.70
2022-08-07T14:32:50.617Z,35.70
2022-08-07T14:35:45.073Z,35.30
2022-08-07T14:38:26.818Z,35.30
2022-08-07T14:41:14.726Z,35.00
2022-08-07T14:43:58.341Z,35.20
2022-08-07T14:46:34.567Z,34.90
2022-08-07T14:49:17.388Z,34.90
2022-08-07T14:52:04.989Z,34.70
2022-08-07T14:54:43.426Z,35.10
2022-08-07T14:57:19.277Z,35.90
2022-08-07T15:00:03.300Z,35.40
2022-08-07T15:02:35.102Z,35.60
2022-08-07T15:07:54.073Z,34.90
2022-08-07T15:10:26.636Z,35.20
2022-08-07T15:13:00.554Z,34.20
2022-08-07T15:15:43.894Z,34.90
2022-08-07T15:18:35.580Z,34.70
2022-08-07T15:27:09.923Z,34.90
2022-08-07T15:32:39.979Z,35.40
2022-08-07T15:41:23.398Z,34.00
2022-08-07T15:44:04.916Z,33.00
2022-08-07T15:46:51.709Z,32.20
2022-08-07T15:49:25.368Z,31.80
2022-08-07T15:54:40.784Z,31.60
2022-08-07T15:57:28.160Z,30.90
2022-08-07T16:00:04.330Z,31.30
2022-08-07T16:02:46.775Z,31.10
2022-08-07T16:05:19.645Z,31.40
2022-08-07T16:08:30.817Z,31.80
2022-08-07T16:11:04.633Z,31.90
2022-08-07T16:14:17.128Z,32.00
2022-08-07T16:17:15.141Z,32.10
2022-08-07T16:20:34.248Z,32.20
2022-08-07T16:23:53.809Z,32.20
2022-08-07T16:26:59.576Z,32.50
2022-08-07T16:30:09.326Z,33.70
2022-08-07T16:34:02.436Z,35.30
2022-08-07T16:37:02.105Z,35.50
2022-08-07T16:40:04.498Z,36.30
2022-08-07T16:44:06.182Z,37.10
2022-08-07T16:47:08.813Z,37.80
2022-08-07T16:50:35.999Z,37.50
2022-08-07T16:53:57.229Z,38.10
2022-08-07T16:58:01.596Z,38.60
2022-08-07T17:00:29.908Z,39.00
2022-08-07T17:03:58.406Z,39.20
2022-08-07T17:06:31.360Z,39.30
2022-08-07T17:10:07.426Z,39.30
2022-08-07T17:12:34.344Z,38.90
2022-08-07T17:15:43.874Z,40.00
2022-08-07T17:18:52.542Z,39.90
2022-08-07T17:21:28.843Z,40.20
2022-08-07T17:24:47.397Z,40.70
2022-08-07T17:27:22.124Z,41.00
2022-08-07T17:30:14.677Z,40.90
2022-08-07T17:34:10.393Z,40.80
2022-08-07T17:36:20.364Z,41.90
2022-08-07T17:39:10.652Z,41.50
2022-08-07T17:42:02.452Z,41.90
2022-08-07T17:44:50.060Z,42.00
2022-08-07T17:47:43.390Z,41.90
2022-08-07T17:50:30.484Z,42.70
2022-08-07T17:53:07.439Z,42.70
2022-08-07T17:56:15.368Z,42.80
2022-08-07T17:59:03.582Z,42.90
2022-08-07T18:01:41.651Z,43.30
2022-08-07T18:04:24.621Z,43.20
2022-08-07T18:07:20.881Z,43.30
2022-08-07T18:10:06.092Z,43.60
2022-08-07T18:13:09.985Z,44.40
2022-08-07T18:15:59.217Z,44.70
2022-08-07T18:21:01.225Z,44.70
2022-08-07T18:21:51.805Z,44.90
2022-08-07T18:24:33.104Z,45.40
2022-08-07T18:27:20.900Z,45.90
2022-08-07T18:30:32.676Z,46.20
2022-08-07T18:33:55.159Z,46.80
2022-08-07T18:37:09.710Z,47.10
2022-08-07T18:40:06.787Z,47.70
2022-08-07T18:43:16.013Z,48.00
2022-08-07T18:46:26.696Z,49.60
2022-08-07T18:50:29.926Z,49.70
2022-08-07T18:53:04.516Z,50.70
2022-08-07T18:56:14.032Z,51.80
2022-08-07T18:59:47.365Z,52.20
2022-08-07T19:02:39.580Z,53.10
2022-08-07T19:06:04.089Z,52.70
2022-08-07T19:08:28.180Z,53.20
2022-08-07T19:11:35.152Z,54.00
2022-08-07T19:14:39.150Z,54.70
2022-08-07T19:17:55.857Z,54.70
2022-08-07T19:20:30.037Z,55.10
2022-08-07T19:23:17.728Z,55.10
2022-08-07T19:26:24.929Z,55.70
2022-08-07T19:30:53.820Z,56.20
2022-08-07T19:32:08.295Z,56.80
2022-08-07T19:34:38.644Z,57.30
2022-08-07T19:37:16.989Z,57.60
2022-08-07T19:39:57.399Z,57.90
2022-08-07T19:42:27.066Z,57.60
2022-08-07T19:45:09.297Z,57.80
2022-08-07T19:47:42.167Z,58.20
2022-08-07T19:50:43.876Z,58.00
2022-08-07T19:53:01.017Z,58.20
2022-08-07T19:55:57.590Z,58.20
2022-08-07T19:58:22.180Z,59.10
2022-08-07T20:00:57.329Z,59.00
2022-08-07T20:03:34.565Z,59.10
2022-08-07T20:06:05.147Z,59.80
2022-08-07T20:08:37.657Z,59.90
2022-08-07T20:11:12.001Z,60.20
2022-08-07T20:13:54.590Z,60.50
2022-08-07T20:16:36.350Z,61.20
2022-08-07T20:19:05.954Z,60.70
2022-08-07T20:21:42.103Z,61.60
2022-08-07T20:24:23.100Z,61.50
2022-08-07T20:26:54.662Z,61.60
2022-08-07T20:29:48.672Z,62.60
2022-08-07T20:32:22.191Z,62.90
2022-08-07T20:34:53.903Z,63.50
2022-08-07T20:37:33.805Z,63.10
2022-08-07T20:40:05.529Z,63.80
2022-08-07T20:42:56.627Z,65.00
2022-08-07T20:45:33.322Z,65.00
2022-08-07T20:48:29.022Z,66.30
2022-08-07T20:51:00.350Z,66.30
2022-08-07T20:54:02.135Z,65.50
2022-08-07T20:56:20.145Z,65.80
2022-08-07T20:58:58.843Z,65.80
2022-08-07T21:01:29.822Z,66.00
2022-08-07T21:04:23.286Z,66.60
2022-08-07T21:06:55.073Z,67.30
2022-08-07T21:09:52.020Z,67.40
2022-08-07T21:12:29.131Z,68.00
2022-08-07T21:15:04.577Z,68.00
2022-08-07T21:18:17.109Z,68.20
2022-08-07T21:20:29.452Z,68.90
2022-08-07T21:23:08.530Z,69.70
2022-08-07T21:25:56.357Z,69.60
2022-08-07T21:28:48.388Z,71.30
2022-08-07T21:32:42.250Z,71.10
2022-08-07T21:34:48.646Z,70.10
2022-08-07T21:37:25.898Z,69.90
2022-08-07T21:40:15.730Z,69.50
2022-08-07T21:42:55.957Z,69.40
2022-08-07T21:46:08.813Z,69.50
2022-08-07T21:48:43.759Z,69.60
2022-08-07T21:51:32.020Z,69.80
2022-08-07T21:54:35.926Z,70.00
2022-08-07T21:57:44.922Z,70.40
2022-08-07T22:00:25.210Z,71.10
2022-08-07T22:03:31.243Z,71.60
2022-08-07T22:06:06.074Z,71.40
2022-08-07T22:08:45.914Z,71.80
2022-08-07T22:11:18.227Z,72.30
2022-08-07T22:13:54.888Z,73.20
2022-08-07T22:16:46.862Z,73.30
2022-08-07T22:19:40.521Z,73.90
2022-08-07T22:22:21.497Z,74.50
2022-08-07T22:25:11.001Z,74.90
2022-08-07T22:28:29.486Z,75.60
2022-08-07T22:31:12.664Z,76.60
2022-08-07T22:34:13.627Z,77.40
2022-08-07T22:38:04.664Z,79.50
2022-08-07T22:40:57.325Z,80.30
2022-08-07T22:43:50.325Z,81.10
2022-08-07T22:47:16.969Z,82.10
2022-08-07T22:50:33.010Z,82.80
2022-08-07T22:54:06.660Z,85.20
2022-08-07T22:57:34.637Z,85.00
2022-08-07T23:00:21.374Z,86.40
2022-08-07T23:03:58.456Z,87.30
2022-08-07T23:06:56.569Z,87.80
2022-08-07T23:10:34.860Z,88.20
2022-08-07T23:13:48.534Z,89.40
2022-08-07T23:16:56.272Z,90.30
2022-08-07T23:20:51.710Z,90.80
2022-08-07T23:24:04.084Z,91.50
2022-08-07T23:27:02.035Z,91.80
2022-08-07T23:30:39.213Z,92.30
2022-08-07T23:34:34.748Z,92.80
2022-08-07T23:37:18.991Z,92.90
2022-08-07T23:40:14.499Z,93.30
2022-08-07T23:43:16.827Z,93.50
2022-08-07T23:46:02.957Z,94.10
2022-08-07T23:49:15.643Z,94.50
2022-08-07T23:52:58.529Z,95.20
2022-08-07T23:55:52.548Z,95.40
2022-08-07T23:58:21.288Z,95.60
